sensor_id;sensor_type;location;lat;lon;timestamp;P1;durP1;ratioP1;P2;durP2;ratioP2
68212;SDS011;55035;47.792;8.724;2022-10-03T00:00:08;2.35;;;0.50;;
68212;SDS011;55035;47.792;8.724;2022-10-03T00:05:23;3.55;;;0.50;;
68212;SDS011;55035;47.792;8.724;2022-10-03T00:08:02;1.90;;;0.30;;
68212;SDS011;55035;47.792;8.724;2022-10-03T00:10:35;3.63;;;0.40;;
68212;SDS011;55035;47.792;8.724;2022-10-03T00:13:10;2.22;;;0.30;;
68212;SDS011;55035;47.792;8.724;2022-10-03T00:15:40;4.78;;;0.40;;
68212;SDS011;55035;47.792;8.724;2022-10-03T00:18:13;2.58;;;0.40;;
68212;SDS011;55035;47.792;8.724;2022-10-03T00:20:45;2.50;;;0.38;;
68212;SDS011;55035;47.792;8.724;2022-10-03T00:23:15;4.28;;;0.40;;
68212;SDS011;55035;47.792;8.724;2022-10-03T00:25:46;3.17;;;0.40;;
68212;SDS011;55035;47.792;8.724;2022-10-03T00:28:18;2.35;;;0.40;;
68212;SDS011;55035;47.792;8.724;2022-10-03T00:31:02;3.10;;;0.50;;
68212;SDS011;55035;47.792;8.724;2022-10-03T00:33:35;3.37;;;0.70;;
68212;SDS011;55035;47.792;8.724;2022-10-03T00:36:05;2.60;;;0.50;;
68212;SDS011;55035;47.792;8.724;2022-10-03T00:41:36;2.88;;;0.50;;
68212;SDS011;55035;47.792;8.724;2022-10-03T00:49:59;2.35;;;0.40;;
68212;SDS011;55035;47.792;8.724;2022-10-03T00:55:18;2.42;;;0.40;;
68212;SDS011;55035;47.792;8.724;2022-10-03T00:57:54;4.00;;;0.60;;
68212;SDS011;55035;47.792;8.724;2022-10-03T01:00:23;4.00;;;0.60;;
68212;SDS011;55035;47.792;8.724;2022-10-03T01:02:59;3.42;;;0.60;;
68212;SDS011;55035;47.792;8.724;2022-10-03T01:05:35;2.85;;;0.50;;
68212;SDS011;55035;47.792;8.724;2022-10-03T01:10:51;2.88;;;0.70;;
68212;SDS011;55035;47.792;8.724;2022-10-03T01:13:25;3.40;;;0.60;;
68212;SDS011;55035;47.792;8.724;2022-10-03T01:15:56;3.25;;;0.50;;
68212;SDS011;55035;47.792;8.724;2022-10-03T01:18:28;4.90;;;1.35;;
68212;SDS011;55035;47.792;8.724;2022-10-03T01:21:00;10.68;;;4.43;;
68212;SDS011;55035;47.792;8.724;2022-10-03T01:26:36;3.97;;;0.77;;
68212;SDS011;55035;47.792;8.724;2022-10-03T01:29:08;3.45;;;0.70;;
68212;SDS011;55035;47.792;8.724;2022-10-03T01:31:55;4.25;;;0.90;;
68212;SDS011;55035;47.792;8.724;2022-10-03T01:34:24;3.92;;;0.80;;
68212;SDS011;55035;47.792;8.724;2022-10-03T01:36:56;3.35;;;0.70;;
68212;SDS011;55035;47.792;8.724;2022-10-03T01:39:30;3.63;;;0.93;;
68212;SDS011;55035;47.792;8.724;2022-10-03T01:41:58;3.67;;;0.70;;
68212;SDS011;55035;47.792;8.724;2022-10-03T01:44:30;3.13;;;0.60;;
68212;SDS011;55035;47.792;8.724;2022-10-03T01:47:05;3.40;;;0.70;;
68212;SDS011;55035;47.792;8.724;2022-10-03T01:49:35;4.93;;;1.02;;
68212;SDS011;55035;47.792;8.724;2022-10-03T01:52:05;5.22;;;0.90;;
68212;SDS011;55035;47.792;8.724;2022-10-03T01:54:36;4.90;;;0.80;;
68212;SDS011;55035;47.792;8.724;2022-10-03T01:57:09;4.40;;;1.08;;
68212;SDS011;55035;47.792;8.724;2022-10-03T01:59:40;3.60;;;0.82;;
68212;SDS011;55035;47.792;8.724;2022-10-03T02:02:09;3.22;;;0.65;;
68212;SDS011;55035;47.792;8.724;2022-10-03T02:04:43;3.53;;;0.80;;
68212;SDS011;55035;47.792;8.724;2022-10-03T02:07:12;4.63;;;0.63;;
68212;SDS011;55035;47.792;8.724;2022-10-03T02:09:47;3.83;;;0.80;;
68212;SDS011;55035;47.792;8.724;2022-10-03T02:12:22;3.10;;;0.65;;
68212;SDS011;55035;47.792;8.724;2022-10-03T02:14:52;4.30;;;0.70;;
68212;SDS011;55035;47.792;8.724;2022-10-03T02:17:22;3.28;;;0.60;;
68212;SDS011;55035;47.792;8.724;2022-10-03T02:19:56;3.28;;;0.60;;
68212;SDS011;55035;47.792;8.724;2022-10-03T02:22:29;3.58;;;0.57;;
68212;SDS011;55035;47.792;8.724;2022-10-03T02:25:03;3.03;;;0.50;;
68212;SDS011;55035;47.792;8.724;2022-10-03T02:30:19;4.68;;;0.90;;
68212;SDS011;55035;47.792;8.724;2022-10-03T02:35:50;4.88;;;0.98;;
68212;SDS011;55035;47.792;8.724;2022-10-03T02:38:22;3.53;;;0.80;;
68212;SDS011;55035;47.792;8.724;2022-10-03T02:41:09;3.78;;;0.80;;
68212;SDS011;55035;47.792;8.724;2022-10-03T02:43:50;7.45;;;0.77;;
68212;SDS011;55035;47.792;8.724;2022-10-03T02:52:14;4.80;;;0.90;;
68212;SDS011;55035;47.792;8.724;2022-10-03T02:54:55;5.45;;;1.00;;
68212;SDS011;55035;47.792;8.724;2022-10-03T03:00:21;4.30;;;0.93;;
68212;SDS011;55035;47.792;8.724;2022-10-03T03:08:19;4.00;;;0.75;;
68212;SDS011;55035;47.792;8.724;2022-10-03T03:11:03;4.30;;;0.95;;
68212;SDS011;55035;47.792;8.724;2022-10-03T03:16:30;5.18;;;0.93;;
68212;SDS011;55035;47.792;8.724;2022-10-03T03:19:04;6.88;;;1.10;;
68212;SDS011;55035;47.792;8.724;2022-10-03T03:21:38;5.53;;;1.00;;
68212;SDS011;55035;47.792;8.724;2022-10-03T03:24:11;3.90;;;0.90;;
68212;SDS011;55035;47.792;8.724;2022-10-03T03:26:50;5.97;;;1.10;;
68212;SDS011;55035;47.792;8.724;2022-10-03T03:29:20;4.30;;;1.05;;
68212;SDS011;55035;47.792;8.724;2022-10-03T03:31:53;5.05;;;1.00;;
68212;SDS011;55035;47.792;8.724;2022-10-03T03:34:29;4.55;;;1.02;;
68212;SDS011;55035;47.792;8.724;2022-10-03T03:37:00;5.28;;;1.00;;
68212;SDS011;55035;47.792;8.724;2022-10-03T03:42:15;4.53;;;1.00;;
68212;SDS011;55035;47.792;8.724;2022-10-03T03:44:56;5.50;;;1.13;;
68212;SDS011;55035;47.792;8.724;2022-10-03T03:50:28;4.40;;;1.20;;
68212;SDS011;55035;47.792;8.724;2022-10-03T03:53:12;6.15;;;1.50;;
68212;SDS011;55035;47.792;8.724;2022-10-03T03:56:00;5.82;;;1.40;;
68212;SDS011;55035;47.792;8.724;2022-10-03T03:58:33;5.75;;;1.33;;
68212;SDS011;55035;47.792;8.724;2022-10-03T04:01:06;5.25;;;1.10;;
68212;SDS011;55035;47.792;8.724;2022-10-03T04:03:41;6.05;;;1.23;;
68212;SDS011;55035;47.792;8.724;2022-10-03T04:06:16;6.97;;;1.15;;
68212;SDS011;55035;47.792;8.724;2022-10-03T04:08:59;6.75;;;1.35;;
68212;SDS011;55035;47.792;8.724;2022-10-03T04:11:32;5.15;;;1.35;;
68212;SDS011;55035;47.792;8.724;2022-10-03T04:16:56;7.55;;;2.03;;
68212;SDS011;55035;47.792;8.724;2022-10-03T04:19:49;6.22;;;1.90;;
68212;SDS011;55035;47.792;8.724;2022-10-03T04:22:21;6.32;;;1.30;;
68212;SDS011;55035;47.792;8.724;2022-10-03T04:27:41;6.32;;;1.33;;
68212;SDS011;55035;47.792;8.724;2022-10-03T04:30:13;5.78;;;1.88;;
68212;SDS011;55035;47.792;8.724;2022-10-03T04:35:36;7.25;;;2.10;;
68212;SDS011;55035;47.792;8.724;2022-10-03T04:38:10;13.95;;;5.03;;
68212;SDS011;55035;47.792;8.724;2022-10-03T04:40:41;22.77;;;9.07;;
68212;SDS011;55035;47.792;8.724;2022-10-03T04:43:13;8.27;;;2.00;;
68212;SDS011;55035;47.792;8.724;2022-10-03T04:45:53;7.95;;;2.70;;
68212;SDS011;55035;47.792;8.724;2022-10-03T04:48:23;13.85;;;4.65;;
68212;SDS011;55035;47.792;8.724;2022-10-03T04:50:59;7.85;;;2.50;;
68212;SDS011;55035;47.792;8.724;2022-10-03T04:53:35;10.85;;;2.03;;
68212;SDS011;55035;47.792;8.724;2022-10-03T04:56:10;5.68;;;1.88;;
68212;SDS011;55035;47.792;8.724;2022-10-03T04:58:39;6.90;;;1.40;;
68212;SDS011;55035;47.792;8.724;2022-10-03T05:01:11;8.80;;;1.80;;
68212;SDS011;55035;47.792;8.724;2022-10-03T05:03:42;8.50;;;1.90;;
68212;SDS011;55035;47.792;8.724;2022-10-03T05:06:19;21.55;;;3.00;;
68212;SDS011;55035;47.792;8.724;2022-10-03T05:08:48;42.03;;;2.70;;
68212;SDS011;55035;47.792;8.724;2022-10-03T05:11:19;26.33;;;2.28;;
68212;SDS011;55035;47.792;8.724;2022-10-03T05:13:52;7.25;;;1.88;;
68212;SDS011;55035;47.792;8.724;2022-10-03T05:16:28;9.05;;;1.77;;
68212;SDS011;55035;47.792;8.724;2022-10-03T05:19:01;7.43;;;2.20;;
68212;SDS011;55035;47.792;8.724;2022-10-03T05:21:35;8.98;;;2.00;;
68212;SDS011;55035;47.792;8.724;2022-10-03T05:24:06;5.55;;;1.60;;
68212;SDS011;55035;47.792;8.724;2022-10-03T05:26:42;7.03;;;2.10;;
68212;SDS011;55035;47.792;8.724;2022-10-03T05:29:16;6.82;;;1.90;;
68212;SDS011;55035;47.792;8.724;2022-10-03T05:31:48;7.90;;;2.20;;
68212;SDS011;55035;47.792;8.724;2022-10-03T05:34:23;6.60;;;2.03;;
68212;SDS011;55035;47.792;8.724;2022-10-03T05:36:59;7.03;;;2.33;;
68212;SDS011;55035;47.792;8.724;2022-10-03T05:39:32;12.30;;;2.10;;
68212;SDS011;55035;47.792;8.724;2022-10-03T05:42:11;7.22;;;2.22;;
68212;SDS011;55035;47.792;8.724;2022-10-03T05:44:41;9.60;;;2.30;;
68212;SDS011;55035;47.792;8.724;2022-10-03T05:47:09;6.30;;;1.92;;
68212;SDS011;55035;47.792;8.724;2022-10-03T05:50:11;6.45;;;2.40;;
68212;SDS011;55035;47.792;8.724;2022-10-03T05:52:45;8.70;;;2.38;;
68212;SDS011;55035;47.792;8.724;2022-10-03T05:55:33;9.75;;;3.17;;
68212;SDS011;55035;47.792;8.724;2022-10-03T05:58:10;13.80;;;5.60;;
68212;SDS011;55035;47.792;8.724;2022-10-03T06:00:43;11.68;;;4.22;;
68212;SDS011;55035;47.792;8.724;2022-10-03T06:03:22;9.30;;;3.90;;
68212;SDS011;55035;47.792;8.724;2022-10-03T06:08:55;7.88;;;3.22;;
68212;SDS011;55035;47.792;8.724;2022-10-03T06:11:40;9.70;;;2.72;;
68212;SDS011;55035;47.792;8.724;2022-10-03T06:16:55;9.40;;;3.33;;
68212;SDS011;55035;47.792;8.724;2022-10-03T06:19:31;9.02;;;3.40;;
68212;SDS011;55035;47.792;8.724;2022-10-03T06:42:09;4.40;;;0.93;;
68212;SDS011;55035;47.792;8.724;2022-10-03T06:44:50;5.13;;;1.27;;
68212;SDS011;55035;47.792;8.724;2022-10-03T06:47:31;4.35;;;1.00;;
68212;SDS011;55035;47.792;8.724;2022-10-03T06:50:22;4.70;;;1.38;;
68212;SDS011;55035;47.792;8.724;2022-10-03T06:53:06;5.38;;;1.45;;
68212;SDS011;55035;47.792;8.724;2022-10-03T06:55:50;5.00;;;1.37;;
68212;SDS011;55035;47.792;8.724;2022-10-03T07:01:23;5.70;;;1.63;;
68212;SDS011;55035;47.792;8.724;2022-10-03T07:09:54;8.70;;;2.67;;
68212;SDS011;55035;47.792;8.724;2022-10-03T07:12:33;5.80;;;2.10;;
68212;SDS011;55035;47.792;8.724;2022-10-03T07:15:12;6.47;;;2.03;;
68212;SDS011;55035;47.792;8.724;2022-10-03T07:23:33;5.13;;;1.70;;
68212;SDS011;55035;47.792;8.724;2022-10-03T07:26:35;6.53;;;2.35;;
68212;SDS011;55035;47.792;8.724;2022-10-03T07:29:19;7.22;;;2.10;;
68212;SDS011;55035;47.792;8.724;2022-10-03T07:31:54;6.50;;;2.50;;
68212;SDS011;55035;47.792;8.724;2022-10-03T07:37:12;6.20;;;2.13;;
68212;SDS011;55035;47.792;8.724;2022-10-03T07:40:08;7.18;;;2.40;;
68212;SDS011;55035;47.792;8.724;2022-10-03T07:42:45;8.25;;;2.28;;
68212;SDS011;55035;47.792;8.724;2022-10-03T07:45:23;6.57;;;2.33;;
68212;SDS011;55035;47.792;8.724;2022-10-03T07:50:47;7.57;;;2.00;;
68212;SDS011;55035;47.792;8.724;2022-10-03T07:56:15;6.40;;;2.13;;
68212;SDS011;55035;47.792;8.724;2022-10-03T07:59:19;6.35;;;1.67;;
68212;SDS011;55035;47.792;8.724;2022-10-03T08:01:52;5.20;;;1.55;;
68212;SDS011;55035;47.792;8.724;2022-10-03T08:04:30;6.47;;;1.60;;
68212;SDS011;55035;47.792;8.724;2022-10-03T08:07:03;6.22;;;1.98;;
68212;SDS011;55035;47.792;8.724;2022-10-03T08:09:49;5.63;;;1.90;;
68212;SDS011;55035;47.792;8.724;2022-10-03T08:15:12;6.57;;;1.63;;
68212;SDS011;55035;47.792;8.724;2022-10-03T08:18:03;6.10;;;1.77;;
68212;SDS011;55035;47.792;8.724;2022-10-03T08:20:47;6.05;;;2.03;;
68212;SDS011;55035;47.792;8.724;2022-10-03T08:26:05;6.90;;;2.20;;
68212;SDS011;55035;47.792;8.724;2022-10-03T08:31:35;9.30;;;2.17;;
68212;SDS011;55035;47.792;8.724;2022-10-03T08:34:15;5.97;;;2.58;;
68212;SDS011;55035;47.792;8.724;2022-10-03T08:36:48;6.10;;;2.20;;
68212;SDS011;55035;47.792;8.724;2022-10-03T08:39:29;7.97;;;2.95;;
68212;SDS011;55035;47.792;8.724;2022-10-03T08:42:05;15.32;;;5.78;;
68212;SDS011;55035;47.792;8.724;2022-10-03T08:44:48;6.67;;;2.60;;
68212;SDS011;55035;47.792;8.724;2022-10-03T08:50:16;6.85;;;2.00;;
68212;SDS011;55035;47.792;8.724;2022-10-03T08:52:49;6.40;;;2.03;;
68212;SDS011;55035;47.792;8.724;2022-10-03T08:55:34;6.35;;;2.50;;
68212;SDS011;55035;47.792;8.724;2022-10-03T08:58:22;7.67;;;2.20;;
68212;SDS011;55035;47.792;8.724;2022-10-03T09:01:10;6.03;;;2.33;;
68212;SDS011;55035;47.792;8.724;2022-10-03T09:03:56;8.18;;;2.38;;
68212;SDS011;55035;47.792;8.724;2022-10-03T09:06:48;6.00;;;2.08;;
68212;SDS011;55035;47.792;8.724;2022-10-03T09:09:23;5.55;;;1.92;;
68212;SDS011;55035;47.792;8.724;2022-10-03T09:12:11;6.13;;;2.10;;
68212;SDS011;55035;47.792;8.724;2022-10-03T09:14:48;6.50;;;2.08;;
68212;SDS011;55035;47.792;8.724;2022-10-03T09:17:22;6.47;;;1.60;;
68212;SDS011;55035;47.792;8.724;2022-10-03T09:19:59;6.10;;;2.28;;
68212;SDS011;55035;47.792;8.724;2022-10-03T09:25:24;6.80;;;1.93;;
68212;SDS011;55035;47.792;8.724;2022-10-03T09:28:22;7.57;;;2.25;;
68212;SDS011;55035;47.792;8.724;2022-10-03T09:30:58;6.93;;;2.20;;
68212;SDS011;55035;47.792;8.724;2022-10-03T09:33:36;7.60;;;2.10;;
68212;SDS011;55035;47.792;8.724;2022-10-03T09:36:24;6.72;;;2.45;;
68212;SDS011;55035;47.792;8.724;2022-10-03T09:39:17;6.90;;;2.33;;
68212;SDS011;55035;47.792;8.724;2022-10-03T09:44:50;8.07;;;2.65;;
68212;SDS011;55035;47.792;8.724;2022-10-03T09:47:28;6.13;;;2.33;;
68212;SDS011;55035;47.792;8.724;2022-10-03T09:56:06;6.10;;;2.35;;
68212;SDS011;55035;47.792;8.724;2022-10-03T09:58:45;7.47;;;2.40;;
68212;SDS011;55035;47.792;8.724;2022-10-03T10:01:21;7.65;;;2.35;;
68212;SDS011;55035;47.792;8.724;2022-10-03T10:06:47;6.47;;;2.20;;
68212;SDS011;55035;47.792;8.724;2022-10-03T10:09:21;6.50;;;2.40;;
68212;SDS011;55035;47.792;8.724;2022-10-03T10:11:55;6.13;;;2.50;;
68212;SDS011;55035;47.792;8.724;2022-10-03T10:23:05;7.47;;;2.22;;
68212;SDS011;55035;47.792;8.724;2022-10-03T10:28:21;7.35;;;2.65;;
68212;SDS011;55035;47.792;8.724;2022-10-03T10:30:58;9.10;;;2.92;;
68212;SDS011;55035;47.792;8.724;2022-10-03T10:39:33;7.35;;;2.85;;
68212;SDS011;55035;47.792;8.724;2022-10-03T11:07:51;8.45;;;2.67;;
68212;SDS011;55035;47.792;8.724;2022-10-03T11:10:32;8.88;;;2.28;;
68212;SDS011;55035;47.792;8.724;2022-10-03T11:27:08;5.78;;;2.28;;
68212;SDS011;55035;47.792;8.724;2022-10-03T11:35:33;5.30;;;1.88;;
68212;SDS011;55035;47.792;8.724;2022-10-03T11:38:09;7.03;;;2.22;;
68212;SDS011;55035;47.792;8.724;2022-10-03T11:40:41;6.63;;;2.47;;
68212;SDS011;55035;47.792;8.724;2022-10-03T11:43:29;5.47;;;1.63;;
68212;SDS011;55035;47.792;8.724;2022-10-03T11:46:00;6.60;;;1.70;;
68212;SDS011;55035;47.792;8.724;2022-10-03T11:48:36;6.20;;;1.83;;
68212;SDS011;55035;47.792;8.724;2022-10-03T11:51:06;5.63;;;1.90;;
68212;SDS011;55035;47.792;8.724;2022-10-03T11:53:41;6.00;;;1.85;;
68212;SDS011;55035;47.792;8.724;2022-10-03T11:56:18;5.80;;;1.77;;
68212;SDS011;55035;47.792;8.724;2022-10-03T12:01:35;5.70;;;2.00;;
68212;SDS011;55035;47.792;8.724;2022-10-03T12:04:07;6.55;;;2.40;;
68212;SDS011;55035;47.792;8.724;2022-10-03T12:06:40;6.25;;;2.00;;
68212;SDS011;55035;47.792;8.724;2022-10-03T12:09:30;6.20;;;2.23;;
68212;SDS011;55035;47.792;8.724;2022-10-03T12:12:02;6.00;;;2.38;;
68212;SDS011;55035;47.792;8.724;2022-10-03T12:14:32;7.03;;;2.30;;
68212;SDS011;55035;47.792;8.724;2022-10-03T12:17:03;5.82;;;2.35;;
68212;SDS011;55035;47.792;8.724;2022-10-03T12:19:32;5.82;;;2.17;;
68212;SDS011;55035;47.792;8.724;2022-10-03T12:22:03;5.70;;;2.03;;
68212;SDS011;55035;47.792;8.724;2022-10-03T12:24:33;6.68;;;2.13;;
68212;SDS011;55035;47.792;8.724;2022-10-03T12:27:04;5.82;;;2.15;;
68212;SDS011;55035;47.792;8.724;2022-10-03T12:29:32;7.22;;;1.83;;
68212;SDS011;55035;47.792;8.724;2022-10-03T12:32:09;6.38;;;2.10;;
68212;SDS011;55035;47.792;8.724;2022-10-03T12:34:41;6.27;;;2.47;;
68212;SDS011;55035;47.792;8.724;2022-10-03T12:37:15;6.95;;;2.10;;
68212;SDS011;55035;47.792;8.724;2022-10-03T12:39:44;7.88;;;2.25;;
68212;SDS011;55035;47.792;8.724;2022-10-03T12:42:21;6.25;;;2.70;;
68212;SDS011;55035;47.792;8.724;2022-10-03T12:44:53;7.50;;;2.60;;
68212;SDS011;55035;47.792;8.724;2022-10-03T12:47:28;6.20;;;2.30;;
68212;SDS011;55035;47.792;8.724;2022-10-03T12:49:59;5.85;;;1.80;;
68212;SDS011;55035;47.792;8.724;2022-10-03T12:52:30;7.20;;;2.08;;
68212;SDS011;55035;47.792;8.724;2022-10-03T12:55:03;6.18;;;2.03;;
68212;SDS011;55035;47.792;8.724;2022-10-03T12:57:44;6.25;;;2.38;;
68212;SDS011;55035;47.792;8.724;2022-10-03T13:00:14;7.30;;;2.30;;
68212;SDS011;55035;47.792;8.724;2022-10-03T13:02:50;6.13;;;1.70;;
68212;SDS011;55035;47.792;8.724;2022-10-03T13:05:30;8.20;;;2.08;;
68212;SDS011;55035;47.792;8.724;2022-10-03T13:08:00;6.40;;;1.75;;
68212;SDS011;55035;47.792;8.724;2022-10-03T13:10:32;6.20;;;1.98;;
68212;SDS011;55035;47.792;8.724;2022-10-03T13:13:05;7.13;;;2.17;;
68212;SDS011;55035;47.792;8.724;2022-10-03T13:15:42;6.60;;;2.20;;
68212;SDS011;55035;47.792;8.724;2022-10-03T13:21:04;6.03;;;2.13;;
68212;SDS011;55035;47.792;8.724;2022-10-03T13:23:38;6.43;;;2.30;;
68212;SDS011;55035;47.792;8.724;2022-10-03T13:26:09;5.53;;;2.00;;
68212;SDS011;55035;47.792;8.724;2022-10-03T13:28:40;6.10;;;2.03;;
68212;SDS011;55035;47.792;8.724;2022-10-03T13:31:14;6.25;;;2.28;;
68212;SDS011;55035;47.792;8.724;2022-10-03T13:33:43;6.55;;;2.50;;
68212;SDS011;55035;47.792;8.724;2022-10-03T13:36:15;6.45;;;2.00;;
68212;SDS011;55035;47.792;8.724;2022-10-03T13:38:48;5.87;;;2.50;;
68212;SDS011;55035;47.792;8.724;2022-10-03T13:41:23;6.13;;;1.77;;
68212;SDS011;55035;47.792;8.724;2022-10-03T13:43:55;6.80;;;1.88;;
68212;SDS011;55035;47.792;8.724;2022-10-03T13:46:24;7.28;;;2.17;;
68212;SDS011;55035;47.792;8.724;2022-10-03T13:48:55;5.88;;;1.85;;
68212;SDS011;55035;47.792;8.724;2022-10-03T13:51:26;6.07;;;2.00;;
68212;SDS011;55035;47.792;8.724;2022-10-03T13:53:58;6.68;;;2.08;;
68212;SDS011;55035;47.792;8.724;2022-10-03T13:59:20;6.30;;;1.98;;
68212;SDS011;55035;47.792;8.724;2022-10-03T14:01:52;6.95;;;2.03;;
68212;SDS011;55035;47.792;8.724;2022-10-03T14:07:22;5.95;;;1.95;;
68212;SDS011;55035;47.792;8.724;2022-10-03T14:12:45;6.97;;;1.90;;
68212;SDS011;55035;47.792;8.724;2022-10-03T14:15:22;6.53;;;2.00;;
68212;SDS011;55035;47.792;8.724;2022-10-03T14:17:52;5.70;;;2.00;;
68212;SDS011;55035;47.792;8.724;2022-10-03T14:20:24;6.53;;;2.00;;
68212;SDS011;55035;47.792;8.724;2022-10-03T14:23:06;5.50;;;1.70;;
68212;SDS011;55035;47.792;8.724;2022-10-03T14:25:38;6.75;;;2.22;;
68212;SDS011;55035;47.792;8.724;2022-10-03T14:28:08;6.15;;;2.15;;
68212;SDS011;55035;47.792;8.724;2022-10-03T14:30:43;5.17;;;1.73;;
68212;SDS011;55035;47.792;8.724;2022-10-03T14:33:14;8.07;;;2.50;;
68212;SDS011;55035;47.792;8.724;2022-10-03T14:35:46;6.93;;;2.20;;
68212;SDS011;55035;47.792;8.724;2022-10-03T14:38:22;6.10;;;2.13;;
68212;SDS011;55035;47.792;8.724;2022-10-03T14:41:14;5.70;;;2.17;;
68212;SDS011;55035;47.792;8.724;2022-10-03T14:43:43;8.07;;;2.07;;
68212;SDS011;55035;47.792;8.724;2022-10-03T14:46:12;6.55;;;2.03;;
68212;SDS011;55035;47.792;8.724;2022-10-03T14:48:40;5.80;;;1.88;;
68212;SDS011;55035;47.792;8.724;2022-10-03T14:51:11;5.53;;;1.92;;
68212;SDS011;55035;47.792;8.724;2022-10-03T14:53:46;6.45;;;2.10;;
68212;SDS011;55035;47.792;8.724;2022-10-03T14:56:13;6.83;;;2.13;;
68212;SDS011;55035;47.792;8.724;2022-10-03T14:58:43;6.68;;;2.20;;
68212;SDS011;55035;47.792;8.724;2022-10-03T15:01:12;6.30;;;1.90;;
68212;SDS011;55035;47.792;8.724;2022-10-03T15:03:40;5.38;;;1.77;;
68212;SDS011;55035;47.792;8.724;2022-10-03T15:06:19;6.95;;;2.00;;
68212;SDS011;55035;47.792;8.724;2022-10-03T15:08:48;7.37;;;1.90;;
68212;SDS011;55035;47.792;8.724;2022-10-03T15:11:15;7.47;;;2.00;;
68212;SDS011;55035;47.792;8.724;2022-10-03T15:13:46;6.43;;;2.00;;
68212;SDS011;55035;47.792;8.724;2022-10-03T15:16:17;7.25;;;2.35;;
68212;SDS011;55035;47.792;8.724;2022-10-03T15:18:49;6.72;;;1.75;;
68212;SDS011;55035;47.792;8.724;2022-10-03T15:21:16;6.30;;;1.97;;
68212;SDS011;55035;47.792;8.724;2022-10-03T15:23:43;6.63;;;2.05;;
68212;SDS011;55035;47.792;8.724;2022-10-03T15:26:14;6.57;;;2.00;;
68212;SDS011;55035;47.792;8.724;2022-10-03T15:28:43;6.95;;;2.17;;
68212;SDS011;55035;47.792;8.724;2022-10-03T15:31:21;8.45;;;2.45;;
68212;SDS011;55035;47.792;8.724;2022-10-03T15:33:51;7.83;;;2.20;;
68212;SDS011;55035;47.792;8.724;2022-10-03T15:36:20;6.95;;;2.22;;
68212;SDS011;55035;47.792;8.724;2022-10-03T15:38:50;7.88;;;2.20;;
68212;SDS011;55035;47.792;8.724;2022-10-03T15:41:20;7.78;;;2.30;;
68212;SDS011;55035;47.792;8.724;2022-10-03T15:43:53;7.28;;;2.15;;
68212;SDS011;55035;47.792;8.724;2022-10-03T15:46:26;8.23;;;2.03;;
68212;SDS011;55035;47.792;8.724;2022-10-03T15:48:54;6.68;;;2.20;;
68212;SDS011;55035;47.792;8.724;2022-10-03T15:51:24;6.75;;;2.30;;
68212;SDS011;55035;47.792;8.724;2022-10-03T15:53:52;5.80;;;2.05;;
68212;SDS011;55035;47.792;8.724;2022-10-03T15:56:24;6.85;;;2.15;;
68212;SDS011;55035;47.792;8.724;2022-10-03T15:58:54;8.57;;;2.30;;
68212;SDS011;55035;47.792;8.724;2022-10-03T16:01:22;7.65;;;2.50;;
68212;SDS011;55035;47.792;8.724;2022-10-03T16:03:52;7.53;;;2.47;;
68212;SDS011;55035;47.792;8.724;2022-10-03T16:06:20;7.15;;;2.60;;
68212;SDS011;55035;47.792;8.724;2022-10-03T16:08:53;7.32;;;2.10;;
68212;SDS011;55035;47.792;8.724;2022-10-03T16:11:21;7.83;;;2.80;;
68212;SDS011;55035;47.792;8.724;2022-10-03T16:13:53;7.07;;;2.33;;
68212;SDS011;55035;47.792;8.724;2022-10-03T16:16:21;8.40;;;2.28;;
68212;SDS011;55035;47.792;8.724;2022-10-03T16:18:53;6.68;;;2.10;;
68212;SDS011;55035;47.792;8.724;2022-10-03T16:21:26;7.85;;;2.30;;
68212;SDS011;55035;47.792;8.724;2022-10-03T16:23:54;5.50;;;2.10;;
68212;SDS011;55035;47.792;8.724;2022-10-03T16:26:25;8.30;;;2.72;;
68212;SDS011;55035;47.792;8.724;2022-10-03T16:28:59;8.40;;;2.38;;
68212;SDS011;55035;47.792;8.724;2022-10-03T16:31:27;7.47;;;2.67;;
68212;SDS011;55035;47.792;8.724;2022-10-03T16:33:56;6.35;;;2.38;;
68212;SDS011;55035;47.792;8.724;2022-10-03T16:36:24;9.93;;;3.53;;
68212;SDS011;55035;47.792;8.724;2022-10-03T16:38:52;8.52;;;4.13;;
68212;SDS011;55035;47.792;8.724;2022-10-03T16:41:20;7.18;;;3.00;;
68212;SDS011;55035;47.792;8.724;2022-10-03T16:43:59;7.28;;;2.78;;
68212;SDS011;55035;47.792;8.724;2022-10-03T16:46:27;9.82;;;4.70;;
68212;SDS011;55035;47.792;8.724;2022-10-03T16:48:57;10.43;;;3.90;;
68212;SDS011;55035;47.792;8.724;2022-10-03T16:51:50;7.75;;;2.85;;
68212;SDS011;55035;47.792;8.724;2022-10-03T16:54:20;8.23;;;3.20;;
68212;SDS011;55035;47.792;8.724;2022-10-03T16:56:47;6.95;;;2.53;;
68212;SDS011;55035;47.792;8.724;2022-10-03T16:59:20;8.30;;;2.35;;
68212;SDS011;55035;47.792;8.724;2022-10-03T17:01:48;6.53;;;2.30;;
68212;SDS011;55035;47.792;8.724;2022-10-03T17:04:19;7.68;;;2.63;;
68212;SDS011;55035;47.792;8.724;2022-10-03T17:06:46;8.88;;;2.72;;
68212;SDS011;55035;47.792;8.724;2022-10-03T17:09:16;7.32;;;3.00;;
68212;SDS011;55035;47.792;8.724;2022-10-03T17:11:45;9.25;;;3.60;;
68212;SDS011;55035;47.792;8.724;2022-10-03T17:14:15;8.40;;;2.90;;
68212;SDS011;55035;47.792;8.724;2022-10-03T17:16:45;8.82;;;2.97;;
68212;SDS011;55035;47.792;8.724;2022-10-03T17:19:18;11.15;;;3.40;;
68212;SDS011;55035;47.792;8.724;2022-10-03T17:21:52;8.07;;;2.88;;
68212;SDS011;55035;47.792;8.724;2022-10-03T17:24:21;11.25;;;3.92;;
68212;SDS011;55035;47.792;8.724;2022-10-03T17:26:52;9.40;;;3.70;;
68212;SDS011;55035;47.792;8.724;2022-10-03T17:29:24;12.10;;;5.00;;
68212;SDS011;55035;47.792;8.724;2022-10-03T17:31:56;15.15;;;6.97;;
68212;SDS011;55035;47.792;8.724;2022-10-03T17:34:26;12.18;;;5.28;;
68212;SDS011;55035;47.792;8.724;2022-10-03T17:36:57;10.50;;;4.82;;
68212;SDS011;55035;47.792;8.724;2022-10-03T17:42:29;10.73;;;5.18;;
68212;SDS011;55035;47.792;8.724;2022-10-03T17:45:00;9.23;;;4.30;;
68212;SDS011;55035;47.792;8.724;2022-10-03T17:47:34;10.82;;;4.65;;
68212;SDS011;55035;47.792;8.724;2022-10-03T17:50:08;13.25;;;4.25;;
68212;SDS011;55035;47.792;8.724;2022-10-03T17:52:39;11.52;;;5.45;;
68212;SDS011;55035;47.792;8.724;2022-10-03T17:55:06;15.77;;;7.45;;
68212;SDS011;55035;47.792;8.724;2022-10-03T17:57:37;22.15;;;10.40;;
68212;SDS011;55035;47.792;8.724;2022-10-03T18:00:06;14.43;;;7.35;;
68212;SDS011;55035;47.792;8.724;2022-10-03T18:02:36;10.82;;;3.83;;
68212;SDS011;55035;47.792;8.724;2022-10-03T18:05:20;8.85;;;3.45;;
68212;SDS011;55035;47.792;8.724;2022-10-03T18:07:48;11.65;;;3.60;;
68212;SDS011;55035;47.792;8.724;2022-10-03T18:10:20;20.40;;;7.15;;
68212;SDS011;55035;47.792;8.724;2022-10-03T18:12:48;22.05;;;7.43;;
68212;SDS011;55035;47.792;8.724;2022-10-03T18:15:23;13.80;;;4.22;;
68212;SDS011;55035;47.792;8.724;2022-10-03T18:18:01;9.75;;;3.85;;
68212;SDS011;55035;47.792;8.724;2022-10-03T18:20:39;8.93;;;3.58;;
68212;SDS011;55035;47.792;8.724;2022-10-03T18:23:09;16.55;;;7.78;;
68212;SDS011;55035;47.792;8.724;2022-10-03T18:25:45;24.02;;;10.10;;
68212;SDS011;55035;47.792;8.724;2022-10-03T18:28:26;18.27;;;8.45;;
68212;SDS011;55035;47.792;8.724;2022-10-03T18:30:55;9.70;;;3.72;;
68212;SDS011;55035;47.792;8.724;2022-10-03T18:33:25;9.88;;;4.43;;
68212;SDS011;55035;47.792;8.724;2022-10-03T18:35:53;9.73;;;3.80;;
68212;SDS011;55035;47.792;8.724;2022-10-03T18:38:21;12.95;;;4.30;;
68212;SDS011;55035;47.792;8.724;2022-10-03T18:40:51;12.30;;;5.57;;
68212;SDS011;55035;47.792;8.724;2022-10-03T18:43:27;9.07;;;4.18;;
68212;SDS011;55035;47.792;8.724;2022-10-03T18:45:58;9.10;;;3.20;;
68212;SDS011;55035;47.792;8.724;2022-10-03T18:48:31;8.52;;;3.33;;
68212;SDS011;55035;47.792;8.724;2022-10-03T18:51:02;9.20;;;3.45;;
68212;SDS011;55035;47.792;8.724;2022-10-03T18:53:32;8.52;;;3.08;;
68212;SDS011;55035;47.792;8.724;2022-10-03T18:56:01;7.78;;;3.28;;
68212;SDS011;55035;47.792;8.724;2022-10-03T18:58:32;9.30;;;3.50;;